Terminal Aerodrome Forecast
Issued by NWS

Home | Current Version | Previous Version | Text Only | Print | Product List | Glossary On
Versions: 1 2 3 4 5 6 7 8 9 10 11 12 13 14 15 16 17 18 19 20 21 22 23 24 25 26 27 28 29
000
FTAK31 PANC 211551 AAB
TAFATK
TAF AMD
PATK 211551Z 2116/2212 00000KT P6SM SCT002
      TEMPO 2116/2117 BKN002
     FM211900 VRB03KT P6SM FEW002 SCT040=

USA.gov is the U.S. government's official web portal to all federal, state and local government web resources and services.